Time;durP1;ratioP1;P1;durP2;ratioP2;P2;SDS_P1;SDS_P2;PMS_P1;PMS_P2;Temp;Humidity;BMP_temperature;BMP_pressure;BME280_temperature;BME280_humidity;BME280_pressure;Samples;Min_cycle;Max_cycle;Signal;HPM_P1;HPM_P2
2021/12/11 00:00:30;;;;;;;26.73;13.23;;;6.70;99.90;;;;;;5092972;28;20078;-73
2021/12/11 00:03:26;;;;;;;22.85;10.82;;;6.70;99.90;;;;;;5091650;28;20047;-73
2021/12/11 00:06:10;;;;;;;26.60;12.00;;;6.70;99.90;;;;;;5093602;28;20502;-72
2021/12/11 00:08:36;;;;;;;24.90;11.55;;;6.70;99.90;;;;;;5091294;28;20028;-75
2021/12/11 00:11:08;;;;;;;26.85;11.95;;;6.70;99.90;;;;;;5093084;28;20028;-73
2021/12/11 00:13:39;;;;;;;26.00;12.77;;;6.70;99.90;;;;;;5090298;28;20051;-75
2021/12/11 00:16:09;;;;;;;25.88;12.15;;;6.80;99.90;;;;;;5092697;28;20024;-75
2021/12/11 00:18:36;;;;;;;28.73;13.95;;;6.80;99.90;;;;;;5090881;28;20128;-75
2021/12/11 00:21:08;;;;;;;30.15;15.88;;;6.80;99.90;;;;;;5093755;28;20031;-73
2021/12/11 00:23:52;;;;;;;23.25;11.50;;;6.80;99.90;;;;;;5091024;28;20024;-73
2021/12/11 00:26:27;;;;;;;28.33;11.95;;;6.80;99.90;;;;;;5091396;28;20115;-74
2021/12/11 00:28:56;;;;;;;26.58;11.68;;;6.80;99.90;;;;;;5093318;28;20065;-73
2021/12/11 00:31:23;;;;;;;25.48;12.02;;;6.80;99.90;;;;;;5093182;28;20059;-73
2021/12/11 00:33:50;;;;;;;25.98;12.38;;;6.80;99.90;;;;;;5093591;28;20111;-74
2021/12/11 00:36:31;;;;;;;26.80;13.50;;;6.80;99.90;;;;;;5093145;28;20119;-73
2021/12/11 00:39:12;;;;;;;29.10;13.02;;;6.80;99.90;;;;;;5093218;28;20155;-73
2021/12/11 00:41:39;;;;;;;28.07;12.53;;;6.70;99.90;;;;;;5089125;28;20413;-73
2021/12/11 00:44:05;;;;;;;29.30;13.20;;;6.70;99.90;;;;;;5092764;28;20023;-73
2021/12/11 00:46:33;;;;;;;29.95;13.27;;;6.70;99.90;;;;;;5092206;28;20027;-75
2021/12/11 00:49:21;;;;;;;28.95;13.40;;;6.70;99.90;;;;;;5093222;28;20653;-74
2021/12/11 00:51:53;;;;;;;28.33;13.45;;;6.60;99.90;;;;;;5064501;28;20170;-76
2021/12/11 00:54:20;;;;;;;27.55;13.27;;;6.60;99.90;;;;;;5094130;28;20042;-73
2021/12/11 00:56:47;;;;;;;27.63;13.65;;;6.60;99.90;;;;;;5092991;28;20026;-75
2021/12/11 00:59:19;;;;;;;27.50;13.18;;;6.60;99.90;;;;;;5093819;28;20061;-75
2021/12/11 01:01:57;;;;;;;28.77;13.32;;;6.50;99.90;;;;;;5099933;28;20141;-74
2021/12/11 01:04:24;;;;;;;27.42;13.10;;;6.50;99.90;;;;;;5094200;28;20051;-72
2021/12/11 01:07:00;;;;;;;27.40;13.07;;;6.40;99.90;;;;;;5093574;28;20072;-74
2021/12/11 01:09:57;;;;;;;29.35;13.32;;;6.40;99.90;;;;;;5093911;28;20135;-74
2021/12/11 01:12:46;;;;;;;32.90;14.88;;;6.30;99.90;;;;;;5092281;28;20032;-74
2021/12/11 01:15:33;;;;;;;27.38;13.20;;;6.30;99.90;;;;;;5079834;28;20519;-72
2021/12/11 01:18:22;;;;;;;31.48;14.35;;;6.30;99.90;;;;;;5093849;28;20077;-72
2021/12/11 01:20:59;;;;;;;32.35;14.93;;;6.30;99.90;;;;;;5077096;28;20027;-76
2021/12/11 01:26:02;;;;;;;28.13;14.27;;;6.30;99.90;;;;;;5087332;28;20460;-75
2021/12/11 01:28:28;;;;;;;34.88;15.75;;;6.30;99.90;;;;;;5098147;28;20052;-76
2021/12/11 01:30:54;;;;;;;31.98;14.38;;;6.30;99.90;;;;;;5093025;28;20482;-73
2021/12/11 01:33:20;;;;;;;32.42;14.55;;;6.20;99.90;;;;;;5093336;28;20035;-73
2021/12/11 01:35:46;;;;;;;30.45;14.88;;;6.20;99.90;;;;;;5101739;28;20031;-72
2021/12/11 01:38:17;;;;;;;31.02;15.40;;;6.20;99.90;;;;;;5097557;28;20024;-75
2021/12/11 01:40:46;;;;;;;29.33;14.67;;;6.20;99.90;;;;;;5108532;28;20024;-73
2021/12/11 01:43:13;;;;;;;31.75;15.23;;;6.20;99.90;;;;;;5093288;28;20249;-71
2021/12/11 01:45:43;;;;;;;31.95;14.82;;;6.20;99.90;;;;;;5093238;28;21527;-76
2021/12/11 01:48:09;;;;;;;36.47;15.93;;;6.30;99.90;;;;;;5092534;28;20020;-72
2021/12/11 01:50:41;;;;;;;34.60;15.43;;;6.30;99.90;;;;;;5092696;28;20099;-75
2021/12/11 01:53:16;;;;;;;30.90;14.98;;;6.30;99.90;;;;;;5093043;28;20016;-72
2021/12/11 01:55:53;;;;;;;29.40;14.52;;;6.30;99.90;;;;;;5090136;28;20026;-74
2021/12/11 01:58:41;;;;;;;30.20;14.23;;;6.40;99.90;;;;;;5093590;28;20111;-71
2021/12/11 02:01:20;;;;;;;34.78;15.27;;;6.30;99.90;;;;;;5095532;28;20048;-74
2021/12/11 02:03:50;;;;;;;32.20;14.18;;;6.40;99.90;;;;;;5093705;28;20052;-76
2021/12/11 02:06:16;;;;;;;35.22;15.32;;;6.30;99.90;;;;;;5093582;28;20036;-78
2021/12/11 02:08:43;;;;;;;30.80;13.00;;;6.30;99.90;;;;;;5093103;28;20028;-76
2021/12/11 02:11:13;;;;;;;34.53;13.68;;;6.30;99.90;;;;;;5093204;28;20024;-77
2021/12/11 02:13:49;;;;;;;33.53;14.93;;;6.20;99.90;;;;;;5093178;28;20027;-76
2021/12/11 02:16:45;;;;;;;31.70;13.98;;;6.20;99.90;;;;;;5093450;28;20052;-74
2021/12/11 02:19:39;;;;;;;31.10;14.88;;;6.10;99.90;;;;;;5076634;28;20036;-74
2021/12/11 02:22:12;;;;;;;35.88;14.60;;;6.00;99.90;;;;;;5090373;28;20040;-74
2021/12/11 02:24:46;;;;;;;32.08;15.48;;;6.00;99.90;;;;;;5092509;28;20059;-73
2021/12/11 02:27:22;;;;;;;32.33;15.15;;;5.90;99.90;;;;;;5095177;28;20357;-75
2021/12/11 02:29:54;;;;;;;30.30;14.07;;;5.90;99.90;;;;;;5092744;28;20107;-72
2021/12/11 02:32:42;;;;;;;29.67;14.18;;;6.00;99.90;;;;;;5089453;28;20016;-73
2021/12/11 02:35:18;;;;;;;33.35;16.27;;;5.90;99.90;;;;;;5082408;28;20016;-75
2021/12/11 02:37:52;;;;;;;30.27;15.10;;;5.90;99.90;;;;;;5092541;28;20028;-75
2021/12/11 02:40:17;;;;;;;33.85;15.07;;;5.80;99.90;;;;;;5093188;28;20476;-72
2021/12/11 02:42:54;;;;;;;30.65;13.95;;;5.80;99.90;;;;;;5092862;28;20051;-74
2021/12/11 02:45:31;;;;;;;34.25;15.35;;;5.80;99.90;;;;;;5096744;28;20043;-73
2021/12/11 02:48:17;;;;;;;37.70;15.40;;;5.80;99.90;;;;;;5096594;28;20020;-75
2021/12/11 02:51:04;;;;;;;32.45;14.07;;;5.90;99.90;;;;;;5096072;28;20028;-73
2021/12/11 02:53:41;;;;;;;40.42;16.52;;;5.90;99.90;;;;;;5110292;28;20039;-72
2021/12/11 02:56:25;;;;;;;33.30;15.10;;;5.90;99.90;;;;;;5096275;28;20115;-76
2021/12/11 02:58:56;;;;;;;34.88;14.02;;;5.90;99.90;;;;;;5096059;28;20468;-73
2021/12/11 03:01:28;;;;;;;33.45;16.25;;;5.90;99.90;;;;;;5096394;28;20036;-75
2021/12/11 03:04:06;;;;;;;34.10;14.15;;;5.90;99.90;;;;;;5095940;28;20051;-73
2021/12/11 03:06:39;;;;;;;37.00;13.60;;;5.90;99.90;;;;;;5094440;28;20056;-76
2021/12/11 03:09:08;;;;;;;34.08;14.50;;;5.80;99.90;;;;;;5095883;28;20461;-76
2021/12/11 03:11:34;;;;;;;40.33;15.60;;;5.80;99.90;;;;;;5095934;28;20456;-73
2021/12/11 03:14:03;;;;;;;38.72;15.07;;;5.80;99.90;;;;;;5096009;28;20103;-75
2021/12/11 03:16:31;;;;;;;34.78;15.85;;;5.80;99.90;;;;;;5096098;28;20024;-72
2021/12/11 03:18:59;;;;;;;40.55;16.20;;;5.80;99.90;;;;;;5099358;28;20089;-73
2021/12/11 03:21:25;;;;;;;39.65;18.10;;;5.80;99.90;;;;;;5097093;28;20032;-73
2021/12/11 03:23:53;;;;;;;33.95;15.50;;;5.70;99.90;;;;;;5076969;28;20035;-73
2021/12/11 03:26:19;;;;;;;31.98;14.02;;;5.70;99.90;;;;;;5096073;28;20024;-74
2021/12/11 03:28:45;;;;;;;31.13;13.05;;;5.60;99.90;;;;;;5102022;28;20518;-73
2021/12/11 03:31:12;;;;;;;38.45;17.50;;;5.50;99.90;;;;;;5095531;28;20032;-75
2021/12/11 03:33:42;;;;;;;36.15;14.68;;;5.50;99.90;;;;;;5095412;28;20463;-75
2021/12/11 03:36:10;;;;;;;33.58;13.63;;;5.50;99.90;;;;;;5077237;28;20452;-75
2021/12/11 03:38:39;;;;;;;34.70;14.77;;;5.50;99.90;;;;;;5094815;28;20041;-75
2021/12/11 03:41:05;;;;;;;39.25;13.85;;;5.50;99.90;;;;;;5095390;28;20035;-74
2021/12/11 03:43:32;;;;;;;36.88;14.75;;;5.50;99.90;;;;;;5096742;28;20036;-75
2021/12/11 03:46:01;;;;;;;29.40;13.48;;;5.50;99.90;;;;;;5092807;28;20047;-75
2021/12/11 03:48:31;;;;;;;30.20;12.57;;;5.60;99.90;;;;;;5109540;28;20024;-76
2021/12/11 03:51:02;;;;;;;40.75;15.80;;;5.60;99.90;;;;;;5094373;28;20032;-72
2021/12/11 03:53:28;;;;;;;36.25;14.25;;;5.60;99.90;;;;;;5095104;28;20059;-73
2021/12/11 03:56:00;;;;;;;42.45;16.27;;;5.70;99.90;;;;;;5093690;28;20065;-73
2021/12/11 03:58:26;;;;;;;39.65;14.48;;;5.80;99.90;;;;;;5102851;28;20055;-74
2021/12/11 04:01:06;;;;;;;30.67;13.25;;;5.90;99.90;;;;;;5095119;28;20022;-75
2021/12/11 04:03:35;;;;;;;25.27;8.20;;;6.00;99.90;;;;;;5097645;28;20469;-74
2021/12/11 04:06:03;;;;;;;28.98;8.68;;;6.10;99.90;;;;;;5095084;28;20036;-73
2021/12/11 04:08:37;;;;;;;23.02;6.13;;;6.20;99.90;;;;;;5095302;28;20468;-76
2021/12/11 04:11:03;;;;;;;18.75;3.90;;;6.40;99.90;;;;;;5095254;28;20114;-76
2021/12/11 04:13:29;;;;;;;26.45;4.05;;;6.50;99.90;;;;;;5081663;28;20149;-76
2021/12/11 04:15:55;;;;;;;18.63;2.47;;;6.70;99.90;;;;;;5094268;28;20460;-74
2021/12/11 04:18:21;;;;;;;23.40;2.25;;;6.80;99.90;;;;;;5094493;28;20420;-75
2021/12/11 04:20:49;;;;;;;20.77;2.97;;;7.00;99.90;;;;;;5098873;28;20059;-74
2021/12/11 04:23:15;;;;;;;16.30;2.70;;;7.10;99.90;;;;;;5095077;28;20024;-73
2021/12/11 04:25:44;;;;;;;12.52;1.83;;;7.20;99.90;;;;;;5074843;28;20115;-75
2021/12/11 04:28:16;;;;;;;16.15;2.17;;;7.40;99.90;;;;;;5075002;28;20078;-75
2021/12/11 04:30:42;;;;;;;22.23;3.53;;;7.50;99.90;;;;;;5074907;28;20096;-75
2021/12/11 04:33:08;;;;;;;10.52;1.90;;;7.60;99.90;;;;;;5074676;28;20064;-75
2021/12/11 04:35:34;;;;;;;13.88;2.97;;;7.70;99.90;;;;;;5094415;28;20439;-76
2021/12/11 04:38:04;;;;;;;9.35;1.83;;;7.80;99.90;;;;;;5095015;28;20034;-74
2021/12/11 04:40:36;;;;;;;9.93;2.00;;;7.90;99.90;;;;;;5095089;28;20127;-75
2021/12/11 04:43:07;;;;;;;10.77;1.92;;;7.90;99.90;;;;;;5093133;28;20539;-73
2021/12/11 04:45:41;;;;;;;11.02;2.22;;;7.90;99.90;;;;;;5094015;28;20024;-72
2021/12/11 04:48:23;;;;;;;14.43;2.47;;;8.00;99.90;;;;;;5110566;28;20135;-75
2021/12/11 04:58:52;;;;;;;11.45;1.70;;;8.00;99.90;;;;;;5115041;28;20034;-73
2021/12/11 05:01:46;;;;;;;10.60;2.75;;;8.00;99.90;;;;;;5114490;28;20039;-75
2021/12/11 05:07:07;;;;;;;8.52;1.88;;;7.90;99.90;;;;;;5114421;28;20030;-74
2021/12/11 05:09:51;;;;;;;8.18;1.92;;;7.90;99.90;;;;;;5114521;28;20098;-72
2021/12/11 05:14:45;;;;;;;8.35;1.52;;;7.90;99.90;;;;;;5114650;28;20028;-74
2021/12/11 05:17:11;;;;;;;3.60;1.55;;;7.90;99.90;;;;;;5114595;28;20100;-75
2021/12/11 05:19:41;;;;;;;5.70;1.70;;;7.80;99.90;;;;;;5114434;28;20027;-73
2021/12/11 05:22:08;;;;;;;5.43;1.60;;;7.80;99.90;;;;;;5112788;28;20050;-76
2021/12/11 05:24:36;;;;;;;5.07;1.40;;;7.70;99.90;;;;;;5103001;28;20051;-73
2021/12/11 05:27:03;;;;;;;9.90;2.70;;;7.70;99.90;;;;;;5093904;28;20024;-71
2021/12/11 05:29:29;;;;;;;6.18;1.30;;;7.70;99.90;;;;;;5093387;28;20103;-75
2021/12/11 05:31:56;;;;;;;5.35;1.63;;;7.60;99.90;;;;;;5093821;28;20031;-75
2021/12/11 05:34:22;;;;;;;6.50;1.98;;;7.60;99.90;;;;;;5093753;28;20028;-75
2021/12/11 05:36:48;;;;;;;10.23;2.25;;;7.60;99.90;;;;;;5093615;28;20035;-72
2021/12/11 05:39:18;;;;;;;15.63;3.30;;;7.60;99.90;;;;;;5093152;28;20104;-74
2021/12/11 05:41:45;;;;;;;14.10;3.88;;;7.60;99.90;;;;;;5075652;28;20047;-73
2021/12/11 05:44:13;;;;;;;18.10;4.85;;;7.50;99.90;;;;;;5093498;28;20028;-73
2021/12/11 05:46:40;;;;;;;19.60;5.97;;;7.50;99.90;;;;;;5075530;28;20024;-75
2021/12/11 05:49:06;;;;;;;24.05;6.05;;;7.50;99.90;;;;;;5093524;28;20032;-72
2021/12/11 05:51:38;;;;;;;23.13;7.45;;;7.40;99.90;;;;;;5093325;28;20035;-76
2021/12/11 05:54:07;;;;;;;21.63;6.22;;;7.40;99.90;;;;;;5093307;28;20506;-74
2021/12/11 05:56:37;;;;;;;25.25;8.25;;;7.40;99.90;;;;;;5093512;28;20121;-72
2021/12/11 05:59:06;;;;;;;24.92;10.40;;;7.30;99.90;;;;;;5075379;28;20024;-76
2021/12/11 06:01:37;;;;;;;28.17;10.35;;;7.20;99.90;;;;;;5093259;28;20028;-74
2021/12/11 06:04:16;;;;;;;29.80;12.23;;;7.10;99.90;;;;;;5092063;28;20054;-75
2021/12/11 06:06:43;;;;;;;26.52;12.13;;;7.00;99.90;;;;;;5093473;28;20460;-74
2021/12/11 06:09:16;;;;;;;47.13;14.75;;;6.90;99.90;;;;;;5093205;28;20024;-75
2021/12/11 06:11:45;;;;;;;35.97;14.50;;;6.70;99.90;;;;;;5093450;28;20051;-76
2021/12/11 06:14:11;;;;;;;35.00;14.88;;;6.60;99.90;;;;;;5093509;28;20111;-72
2021/12/11 06:16:37;;;;;;;32.30;14.73;;;6.50;99.90;;;;;;5098488;28;20036;-74
2021/12/11 06:19:05;;;;;;;36.90;15.82;;;6.40;99.90;;;;;;5098613;28;20020;-72
2021/12/11 06:21:33;;;;;;;39.35;15.80;;;6.30;99.90;;;;;;5099926;28;20058;-73
2021/12/11 06:24:00;;;;;;;37.35;15.93;;;6.20;99.90;;;;;;5099705;28;20115;-73
2021/12/11 06:26:26;;;;;;;33.17;14.45;;;6.10;99.90;;;;;;5099989;28;20122;-72
2021/12/11 06:28:52;;;;;;;42.85;16.88;;;6.10;99.90;;;;;;5099959;28;20020;-74
2021/12/11 06:31:19;;;;;;;42.67;16.23;;;6.00;99.90;;;;;;5099814;28;20031;-73
2021/12/11 06:33:50;;;;;;;40.47;16.92;;;5.90;99.90;;;;;;5100008;28;20020;-72
2021/12/11 06:36:19;;;;;;;35.05;16.63;;;5.90;99.90;;;;;;5099608;28;20475;-73
2021/12/11 06:38:48;;;;;;;39.13;18.38;;;5.80;99.90;;;;;;5100217;28;20162;-74
2021/12/11 06:41:17;;;;;;;35.30;16.10;;;5.80;99.90;;;;;;5100361;28;20039;-76
2021/12/11 06:43:42;;;;;;;38.53;17.88;;;5.80;99.90;;;;;;5099877;28;20024;-73
2021/12/11 06:46:09;;;;;;;38.65;18.60;;;5.70;99.90;;;;;;5100004;28;20035;-73
2021/12/11 06:48:35;;;;;;;38.60;16.13;;;5.70;99.90;;;;;;5099709;28;20051;-76
2021/12/11 06:51:02;;;;;;;40.80;17.00;;;5.70;99.90;;;;;;5099848;28;20032;-73
2021/12/11 06:53:52;;;;;;;39.20;17.17;;;5.70;99.90;;;;;;5099551;28;20043;-75
2021/12/11 06:56:20;;;;;;;43.35;18.38;;;5.70;99.90;;;;;;5099363;28;20111;-73
2021/12/11 06:58:46;;;;;;;44.50;20.27;;;5.70;99.90;;;;;;5100199;28;20486;-75
2021/12/11 07:01:11;;;;;;;39.90;15.77;;;5.60;99.90;;;;;;5099701;28;20032;-76
2021/12/11 07:03:39;;;;;;;43.70;17.98;;;5.60;99.90;;;;;;5099814;28;20111;-73
2021/12/11 07:06:06;;;;;;;56.20;20.67;;;5.60;99.90;;;;;;5099460;28;20115;-76
2021/12/11 07:08:32;;;;;;;46.10;20.10;;;5.60;99.90;;;;;;5099493;28;20038;-75
2021/12/11 07:10:59;;;;;;;49.35;19.58;;;5.60;99.90;;;;;;5099181;28;20106;-75
2021/12/11 07:13:25;;;;;;;41.60;18.75;;;5.60;99.90;;;;;;5099532;28;20028;-73
2021/12/11 07:15:52;;;;;;;46.80;19.27;;;5.60;99.90;;;;;;5099556;28;20074;-73
2021/12/11 07:18:19;;;;;;;45.30;20.42;;;5.60;99.90;;;;;;5099484;28;20062;-75
2021/12/11 07:20:44;;;;;;;47.83;19.08;;;5.60;99.90;;;;;;5098200;28;20024;-76
2021/12/11 07:23:10;;;;;;;47.00;19.63;;;5.50;99.90;;;;;;5099045;28;20040;-75
2021/12/11 07:25:45;;;;;;;47.50;20.30;;;5.50;99.90;;;;;;5080868;28;20020;-76
2021/12/11 07:28:12;;;;;;;45.72;21.23;;;5.40;99.90;;;;;;5077147;28;20032;-73
2021/12/11 07:30:45;;;;;;;48.75;19.90;;;5.40;99.90;;;;;;5096324;28;20023;-75
2021/12/11 07:33:13;;;;;;;51.55;19.40;;;5.30;99.90;;;;;;5095040;28;20035;-73
2021/12/11 07:35:41;;;;;;;49.78;21.08;;;5.30;99.90;;;;;;5096003;28;20375;-74
2021/12/11 07:38:07;;;;;;;46.67;19.02;;;5.20;99.90;;;;;;5095574;28;20532;-75
2021/12/11 07:40:49;;;;;;;48.38;21.17;;;5.20;99.90;;;;;;5096231;28;20028;-75
2021/12/11 07:43:16;;;;;;;53.28;20.70;;;5.10;99.90;;;;;;5096232;28;20514;-75
2021/12/11 07:45:43;;;;;;;50.05;19.95;;;5.10;99.90;;;;;;5099433;28;20052;-76
2021/12/11 07:48:10;;;;;;;60.72;21.15;;;5.00;99.90;;;;;;5093822;28;20020;-75
2021/12/11 07:50:37;;;;;;;50.33;20.08;;;5.00;99.90;;;;;;5095295;28;20027;-75
2021/12/11 07:53:04;;;;;;;58.05;23.65;;;5.00;99.90;;;;;;5077582;28;20051;-76
2021/12/11 07:55:30;;;;;;;55.40;20.88;;;5.00;99.90;;;;;;5095414;28;20023;-73
2021/12/11 07:57:56;;;;;;;53.35;22.63;;;5.00;99.90;;;;;;5095765;28;20042;-75
2021/12/11 08:00:24;;;;;;;59.72;21.20;;;5.00;99.90;;;;;;5094066;28;20028;-75
2021/12/11 08:02:50;;;;;;;61.65;24.45;;;5.00;99.90;;;;;;5094925;28;20094;-74
2021/12/11 08:05:16;;;;;;;51.70;22.15;;;5.00;99.90;;;;;;5095016;28;20071;-75
2021/12/11 08:07:42;;;;;;;55.67;22.52;;;5.00;99.90;;;;;;5077428;28;20057;-73
2021/12/11 08:10:18;;;;;;;65.75;23.30;;;5.00;99.90;;;;;;5095498;28;20471;-74
2021/12/11 08:12:44;;;;;;;63.28;24.33;;;5.00;99.90;;;;;;5095351;28;20491;-75
2021/12/11 08:15:12;;;;;;;54.92;21.25;;;5.00;99.90;;;;;;5095133;28;20361;-75
2021/12/11 08:17:38;;;;;;;56.35;22.30;;;5.00;99.90;;;;;;5095008;28;20024;-75
2021/12/11 08:20:09;;;;;;;59.35;23.33;;;5.00;99.90;;;;;;5093867;28;20065;-74
2021/12/11 08:22:35;;;;;;;63.70;24.50;;;5.00;99.90;;;;;;5094622;28;20436;-75
2021/12/11 08:25:02;;;;;;;82.97;27.67;;;5.00;99.90;;;;;;5094870;28;20032;-76
2021/12/11 08:27:28;;;;;;;68.45;26.75;;;5.10;99.90;;;;;;5095633;28;20035;-74
2021/12/11 08:29:54;;;;;;;67.80;24.50;;;5.10;99.90;;;;;;5094484;28;20031;-73
2021/12/11 08:32:21;;;;;;;61.75;24.40;;;5.20;99.90;;;;;;5111542;28;20028;-73
2021/12/11 08:34:49;;;;;;;49.55;22.35;;;5.20;99.90;;;;;;5115156;28;20062;-75
2021/12/11 08:37:17;;;;;;;72.25;26.33;;;5.30;99.90;;;;;;5114829;28;20066;-73
2021/12/11 08:39:43;;;;;;;59.92;22.75;;;5.40;99.90;;;;;;5113791;28;20374;-76
2021/12/11 08:42:13;;;;;;;62.40;23.92;;;5.40;99.90;;;;;;5108363;28;20058;-74
2021/12/11 08:44:49;;;;;;;57.75;23.08;;;5.50;99.90;;;;;;5102077;28;20043;-75
2021/12/11 08:47:15;;;;;;;63.15;23.83;;;5.60;99.90;;;;;;5080663;28;20028;-75
2021/12/11 08:49:41;;;;;;;51.45;21.63;;;5.70;99.90;;;;;;5110006;28;20468;-75
2021/12/11 08:52:16;;;;;;;50.53;21.38;;;5.80;99.90;;;;;;5094699;28;20107;-73
2021/12/11 08:54:45;;;;;;;51.83;20.83;;;5.90;99.90;;;;;;5093631;28;20063;-74
2021/12/11 08:57:16;;;;;;;45.00;20.58;;;6.00;99.90;;;;;;5094323;28;20067;-74
2021/12/11 08:59:46;;;;;;;46.25;19.92;;;6.00;99.90;;;;;;5093079;28;20073;-74
2021/12/11 09:02:17;;;;;;;47.92;19.70;;;6.20;99.90;;;;;;5098126;28;20115;-76
2021/12/11 09:04:48;;;;;;;41.97;18.35;;;6.30;99.90;;;;;;5100197;28;20510;-74
2021/12/11 09:07:17;;;;;;;45.45;20.90;;;6.40;99.90;;;;;;5092024;28;20083;-75
2021/12/11 09:09:51;;;;;;;57.08;24.13;;;6.50;99.90;;;;;;5093049;28;20036;-76
2021/12/11 09:12:19;;;;;;;39.63;18.42;;;6.60;99.90;;;;;;5093626;28;20497;-73
2021/12/11 09:15:00;;;;;;;38.45;17.13;;;6.70;99.90;;;;;;5093544;28;20058;-73
2021/12/11 09:17:33;;;;;;;39.92;17.77;;;6.80;99.90;;;;;;5089010;28;20032;-76
2021/12/11 09:20:17;;;;;;;47.42;18.38;;;6.80;99.90;;;;;;5093637;28;20035;-76
2021/12/11 09:22:56;;;;;;;41.88;16.98;;;6.90;99.90;;;;;;5101344;28;20063;-76
2021/12/11 09:25:30;;;;;;;42.45;16.35;;;6.90;99.90;;;;;;5092635;28;20056;-74
2021/12/11 09:27:58;;;;;;;39.45;16.83;;;6.80;99.90;;;;;;5094462;28;20063;-76
2021/12/11 09:31:02;;;;;;;38.70;15.73;;;6.80;99.90;;;;;;5092309;28;20032;-73
2021/12/11 09:33:33;;;;;;;42.80;16.92;;;6.80;99.90;;;;;;5079408;28;20518;-75
2021/12/11 09:36:12;;;;;;;42.90;17.87;;;6.90;99.90;;;;;;5092332;28;20031;-73
2021/12/11 09:38:43;;;;;;;47.53;18.48;;;6.90;99.90;;;;;;5092651;28;20244;-74
2021/12/11 09:41:21;;;;;;;45.25;16.95;;;6.90;99.90;;;;;;5093150;28;20072;-74
2021/12/11 09:43:49;;;;;;;44.25;17.83;;;7.00;99.90;;;;;;5092800;28;20046;-73
2021/12/11 09:46:25;;;;;;;43.55;16.38;;;7.10;99.90;;;;;;5092743;28;20047;-74
2021/12/11 09:48:52;;;;;;;40.47;17.23;;;7.20;99.90;;;;;;5092419;28;20059;-74
2021/12/11 09:51:25;;;;;;;46.78;17.95;;;7.30;99.90;;;;;;5091168;28;20093;-73
2021/12/11 09:53:54;;;;;;;43.60;17.08;;;7.40;99.90;;;;;;5092511;28;20012;-73
2021/12/11 09:56:36;;;;;;;40.15;16.20;;;7.50;99.90;;;;;;5099661;28;20024;-74
2021/12/11 09:59:06;;;;;;;39.22;15.48;;;7.70;99.90;;;;;;5101486;28;20487;-73
2021/12/11 10:01:38;;;;;;;39.58;15.75;;;8.00;99.90;;;;;;5084509;28;20047;-74
2021/12/11 10:04:11;;;;;;;42.75;15.18;;;8.30;99.90;;;;;;5092887;28;20379;-73
2021/12/11 10:06:52;;;;;;;38.92;14.38;;;8.30;99.90;;;;;;5088926;28;20032;-73
2021/12/11 10:09:26;;;;;;;35.10;14.25;;;8.20;99.90;;;;;;5093914;28;20089;-73
2021/12/11 10:12:04;;;;;;;43.25;16.65;;;8.10;99.90;;;;;;5092419;28;20475;-73
2021/12/11 10:14:40;;;;;;;34.70;14.10;;;8.00;99.90;;;;;;5091812;28;20059;-73
2021/12/11 10:17:11;;;;;;;37.55;14.60;;;7.90;99.90;;;;;;5098160;28;20422;-73
2021/12/11 10:19:39;;;;;;;38.58;15.30;;;7.80;99.90;;;;;;5092740;28;20165;-74
2021/12/11 10:22:13;;;;;;;35.50;13.23;;;7.80;99.90;;;;;;5098685;28;20097;-74
2021/12/11 10:24:39;;;;;;;35.30;13.45;;;7.80;99.90;;;;;;5084250;28;20589;-74
2021/12/11 10:27:08;;;;;;;30.42;11.90;;;8.00;99.90;;;;;;5092165;28;20468;-73
2021/12/11 10:29:35;;;;;;;34.13;11.93;;;8.50;99.90;;;;;;5092035;28;20084;-73
2021/12/11 10:32:06;;;;;;;29.08;9.25;;;9.10;99.90;;;;;;5092675;28;20037;-73
2021/12/11 10:34:33;;;;;;;19.88;7.60;;;9.70;99.90;;;;;;5090695;28;20028;-71
2021/12/11 10:37:13;;;;;;;19.25;6.78;;;10.40;99.90;;;;;;5095820;28;20024;-73
2021/12/11 10:39:48;;;;;;;12.88;5.22;;;11.10;99.90;;;;;;5098777;28;20099;-74
2021/12/11 10:42:14;;;;;;;20.23;5.35;;;11.80;99.90;;;;;;5098771;28;20035;-74
2021/12/11 10:44:45;;;;;;;18.77;5.60;;;12.40;99.90;;;;;;5093514;28;20028;-72
2021/12/11 10:47:15;;;;;;;15.93;5.70;;;12.90;99.90;;;;;;5084316;28;20032;-74
2021/12/11 10:49:42;;;;;;;17.10;4.53;;;13.40;99.90;;;;;;5092270;28;20024;-72
2021/12/11 10:52:19;;;;;;;17.48;5.18;;;13.70;99.90;;;;;;5102403;28;20115;-71
2021/12/11 10:54:47;;;;;;;18.77;5.40;;;13.70;99.90;;;;;;5094883;28;20035;-73
2021/12/11 10:57:15;;;;;;;17.52;5.25;;;13.60;99.90;;;;;;5093171;28;20051;-71
2021/12/11 10:59:43;;;;;;;20.13;6.00;;;13.50;99.90;;;;;;5097155;28;20100;-74
2021/12/11 11:02:24;;;;;;;18.27;5.50;;;13.40;99.90;;;;;;5096413;28;20502;-73
2021/12/11 11:04:57;;;;;;;18.45;6.28;;;13.20;99.90;;;;;;5094593;28;20062;-74
2021/12/11 11:07:25;;;;;;;31.75;9.32;;;13.20;99.90;;;;;;5099842;28;20024;-71
2021/12/11 11:09:51;;;;;;;11.02;3.83;;;13.20;99.90;;;;;;5101364;28;20467;-72
2021/12/11 11:12:21;;;;;;;14.95;5.00;;;13.20;99.90;;;;;;5097459;28;20093;-71
2021/12/11 11:14:52;;;;;;;14.77;4.07;;;13.30;99.90;;;;;;5095548;28;20020;-73
2021/12/11 11:17:20;;;;;;;16.80;5.17;;;13.40;99.90;;;;;;5115870;28;20024;-73
2021/12/11 11:19:50;;;;;;;20.50;5.78;;;13.70;99.90;;;;;;5114746;28;20118;-73
2021/12/11 11:22:23;;;;;;;11.60;3.80;;;14.00;99.90;;;;;;5094014;28;20044;-73
2021/12/11 11:25:03;;;;;;;10.57;3.15;;;14.20;99.90;;;;;;5094324;28;20110;-72
2021/12/11 11:27:29;;;;;;;13.05;3.05;;;14.20;99.90;;;;;;5094710;28;20424;-73
2021/12/11 11:29:55;;;;;;;17.50;3.50;;;14.10;99.90;;;;;;5094877;28;20103;-72
2021/12/11 11:32:31;;;;;;;11.63;2.95;;;13.80;99.90;;;;;;5094748;28;20380;-73
2021/12/11 11:35:20;;;;;;;13.68;3.05;;;13.50;99.90;;;;;;5093221;28;20020;-72
2021/12/11 11:37:49;;;;;;;7.28;2.40;;;13.20;99.90;;;;;;5092320;28;20106;-73
2021/12/11 11:40:20;;;;;;;9.35;2.85;;;13.10;99.90;;;;;;5094972;28;20020;-73
2021/12/11 11:42:46;;;;;;;10.27;2.65;;;12.90;99.90;;;;;;5095393;28;20038;-72
2021/12/11 11:45:12;;;;;;;10.90;2.60;;;12.70;99.90;;;;;;5094105;28;20110;-72
2021/12/11 11:47:40;;;;;;;11.18;2.58;;;12.50;99.90;;;;;;5093927;28;20024;-72
2021/12/11 11:50:09;;;;;;;11.48;2.30;;;12.30;99.90;;;;;;5093915;28;20029;-72
2021/12/11 11:52:35;;;;;;;10.80;2.25;;;12.20;99.90;;;;;;5093833;28;20032;-72
2021/12/11 11:55:08;;;;;;;6.10;1.80;;;12.00;99.90;;;;;;5079069;28;20023;-72
2021/12/11 11:57:39;;;;;;;7.38;1.80;;;11.90;99.90;;;;;;5105498;28;20111;-72
2021/12/11 12:00:41;;;;;;;7.32;1.52;;;11.70;99.90;;;;;;5115459;28;20052;-73
2021/12/11 12:03:11;;;;;;;10.68;1.55;;;11.60;99.90;;;;;;5107195;28;20516;-73
2021/12/11 12:05:39;;;;;;;9.45;1.52;;;11.50;99.90;;;;;;5114134;28;20043;-73
2021/12/11 12:08:13;;;;;;;12.50;1.60;;;11.40;99.90;;;;;;5083873;28;20035;-73
2021/12/11 12:10:43;;;;;;;9.32;1.30;;;11.30;99.90;;;;;;5094564;28;20062;-72
2021/12/11 12:13:09;;;;;;;8.45;1.35;;;11.30;99.90;;;;;;5075823;28;20353;-74
2021/12/11 12:15:40;;;;;;;5.13;1.02;;;11.30;99.90;;;;;;5094892;28;20032;-73
2021/12/11 12:18:06;;;;;;;12.13;1.42;;;11.20;99.90;;;;;;5094937;28;20020;-72
2021/12/11 12:20:34;;;;;;;12.70;1.38;;;11.10;99.90;;;;;;5094439;28;20028;-74
2021/12/11 12:23:01;;;;;;;6.55;1.23;;;11.10;99.90;;;;;;5094301;28;20036;-72
2021/12/11 12:25:29;;;;;;;4.57;1.52;;;11.20;99.90;;;;;;5094539;28;20035;-72
2021/12/11 12:27:55;;;;;;;9.50;1.55;;;11.20;99.90;;;;;;5094953;28;20035;-73
2021/12/11 12:30:23;;;;;;;12.85;1.75;;;11.10;99.90;;;;;;5094694;28;20357;-74
2021/12/11 12:32:53;;;;;;;14.63;2.47;;;11.00;99.90;;;;;;5093753;28;20020;-72
2021/12/11 12:35:19;;;;;;;9.00;1.42;;;11.00;99.90;;;;;;5094980;28;20017;-72
2021/12/11 12:37:49;;;;;;;15.15;2.40;;;10.90;99.90;;;;;;5094819;28;20379;-72
2021/12/11 12:40:42;;;;;;;12.70;2.08;;;10.90;99.90;;;;;;5094498;28;20021;-75
2021/12/11 12:43:20;;;;;;;11.70;2.45;;;11.00;99.90;;;;;;5094443;28;20031;-73
2021/12/11 12:45:49;;;;;;;11.13;1.75;;;11.10;99.90;;;;;;5094494;28;20027;-73
2021/12/11 12:48:18;;;;;;;11.95;2.30;;;11.30;99.90;;;;;;5094624;28;20020;-74
2021/12/11 12:50:53;;;;;;;10.55;2.10;;;11.20;99.90;;;;;;5094528;28;20027;-73
2021/12/11 12:53:19;;;;;;;19.48;2.78;;;11.10;99.90;;;;;;5094332;28;20093;-75
2021/12/11 12:55:53;;;;;;;9.50;1.92;;;11.10;99.90;;;;;;5094007;28;20028;-74
2021/12/11 12:58:27;;;;;;;13.18;2.00;;;11.20;99.90;;;;;;5092995;28;20024;-76
2021/12/11 13:00:58;;;;;;;9.50;1.98;;;11.50;99.90;;;;;;5093984;28;20034;-75
2021/12/11 13:03:31;;;;;;;12.73;1.80;;;11.70;99.90;;;;;;5094055;28;20032;-74
2021/12/11 13:06:01;;;;;;;8.45;1.88;;;11.70;99.90;;;;;;5092939;28;20044;-73
2021/12/11 13:08:37;;;;;;;9.63;2.50;;;11.80;99.90;;;;;;5093865;28;20031;-74
2021/12/11 13:11:15;;;;;;;10.38;2.35;;;11.80;99.90;;;;;;5092298;28;20028;-72
2021/12/11 13:13:42;;;;;;;11.70;2.28;;;11.70;99.90;;;;;;5091518;28;20050;-72